sensor_id;sensor_type;location;lat;lon;timestamp;pressure;altitude;pressure_sealevel;temperature;humidity
18504;BME280;9381;54.244;10.074;2022-12-16T00:00:35;100573.72;;;0.94;100.00
18504;BME280;9381;54.244;10.074;2022-12-16T00:05:35;100581.03;;;0.92;100.00
18504;BME280;9381;54.244;10.074;2022-12-16T00:10:36;100594.72;;;0.97;100.00
18504;BME280;9381;54.244;10.074;2022-12-16T00:15:52;100595.53;;;0.98;100.00
18504;BME280;9381;54.244;10.074;2022-12-16T00:20:53;100596.06;;;1.01;100.00
18504;BME280;9381;54.244;10.074;2022-12-16T00:25:54;100596.06;;;1.01;100.00
18504;BME280;9381;54.244;10.074;2022-12-16T00:30:54;100594.41;;;1.00;100.00
18504;BME280;9381;54.244;10.074;2022-12-16T00:35:55;100615.06;;;1.06;100.00
18504;BME280;9381;54.244;10.074;2022-12-16T00:40:55;100611.41;;;1.07;100.00
18504;BME280;9381;54.244;10.074;2022-12-16T00:45:56;100612.56;;;1.05;100.00
18504;BME280;9381;54.244;10.074;2022-12-16T00:50:56;100616.75;;;1.07;100.00
18504;BME280;9381;54.244;10.074;2022-12-16T00:56:06;100618.41;;;1.08;100.00
18504;BME280;9381;54.244;10.074;2022-12-16T01:01:07;100628.44;;;1.14;100.00
18504;BME280;9381;54.244;10.074;2022-12-16T01:06:13;100616.78;;;1.15;100.00
18504;BME280;9381;54.244;10.074;2022-12-16T01:11:15;100619.13;;;1.18;100.00
18504;BME280;9381;54.244;10.074;2022-12-16T01:16:16;100615.84;;;1.24;100.00
18504;BME280;9381;54.244;10.074;2022-12-16T01:21:16;100627.16;;;1.26;100.00
18504;BME280;9381;54.244;10.074;2022-12-16T01:26:17;100628.81;;;1.27;100.00
18504;BME280;9381;54.244;10.074;2022-12-16T01:31:19;100632.13;;;1.21;100.00
18504;BME280;9381;54.244;10.074;2022-12-16T01:36:20;100631.16;;;1.30;100.00
18504;BME280;9381;54.244;10.074;2022-12-16T01:41:20;100629.53;;;1.37;100.00
18504;BME280;9381;54.244;10.074;2022-12-16T01:46:22;100641.34;;;1.35;100.00
18504;BME280;9381;54.244;10.074;2022-12-16T01:51:50;100650.97;;;1.28;100.00
18504;BME280;9381;54.244;10.074;2022-12-16T01:56:59;100655.97;;;1.31;100.00
18504;BME280;9381;54.244;10.074;2022-12-16T02:02:01;100650.19;;;1.35;100.00
18504;BME280;9381;54.244;10.074;2022-12-16T02:07:02;100659.16;;;1.34;100.00
18504;BME280;9381;54.244;10.074;2022-12-16T02:17:38;100667.16;;;1.34;100.00
18504;BME280;9381;54.244;10.074;2022-12-16T02:23:10;100668.88;;;1.43;100.00
18504;BME280;9381;54.244;10.074;2022-12-16T02:34:07;100659.69;;;1.46;100.00
18504;BME280;9381;54.244;10.074;2022-12-16T02:39:19;100662.53;;;1.44;100.00
18504;BME280;9381;54.244;10.074;2022-12-16T02:44:29;100662.22;;;1.47;100.00
18504;BME280;9381;54.244;10.074;2022-12-16T02:54:34;100677.53;;;1.45;100.00
18504;BME280;9381;54.244;10.074;2022-12-16T03:04:57;100681.53;;;1.49;100.00
18504;BME280;9381;54.244;10.074;2022-12-16T03:10:03;100682.38;;;1.50;100.00
18504;BME280;9381;54.244;10.074;2022-12-16T03:15:08;100678.81;;;1.41;100.00
18504;BME280;9381;54.244;10.074;2022-12-16T03:20:13;100689.00;;;1.38;100.00
18504;BME280;9381;54.244;10.074;2022-12-16T03:25:16;100697.75;;;1.30;100.00
18504;BME280;9381;54.244;10.074;2022-12-16T03:30:27;100687.09;;;1.30;100.00
18504;BME280;9381;54.244;10.074;2022-12-16T03:35:48;100703.28;;;1.37;100.00
18504;BME280;9381;54.244;10.074;2022-12-16T03:40:50;100702.47;;;1.36;100.00
18504;BME280;9381;54.244;10.074;2022-12-16T03:45:55;100703.28;;;1.37;100.00
18504;BME280;9381;54.244;10.074;2022-12-16T03:50:57;100708.31;;;1.40;100.00
18504;BME280;9381;54.244;10.074;2022-12-16T03:55:57;100712.50;;;1.42;100.00
18504;BME280;9381;54.244;10.074;2022-12-16T04:00:57;100719.50;;;1.43;100.00
18504;BME280;9381;54.244;10.074;2022-12-16T04:05:57;100728.97;;;1.46;100.00
18504;BME280;9381;54.244;10.074;2022-12-16T04:10:58;100728.50;;;1.42;100.00
18504;BME280;9381;54.244;10.074;2022-12-16T04:16:17;100727.78;;;1.40;100.00
18504;BME280;9381;54.244;10.074;2022-12-16T04:21:35;100736.31;;;1.44;100.00
18504;BME280;9381;54.244;10.074;2022-12-16T04:26:55;100738.81;;;1.45;100.00
18504;BME280;9381;54.244;10.074;2022-12-16T04:32:27;100745.28;;;1.43;100.00
18504;BME280;9381;54.244;10.074;2022-12-16T04:37:48;100743.72;;;1.32;100.00
18504;BME280;9381;54.244;10.074;2022-12-16T04:43:07;100754.38;;;1.32;100.00
18504;BME280;9381;54.244;10.074;2022-12-16T04:48:26;100764.75;;;1.35;100.00
18504;BME280;9381;54.244;10.074;2022-12-16T04:53:45;100767.47;;;1.43;100.00
18504;BME280;9381;54.244;10.074;2022-12-16T04:59:04;100764.09;;;1.41;100.00
18504;BME280;9381;54.244;10.074;2022-12-16T05:04:23;100768.47;;;1.42;100.00
18504;BME280;9381;54.244;10.074;2022-12-16T05:09:43;100768.13;;;1.45;100.00
18504;BME280;9381;54.244;10.074;2022-12-16T05:15:02;100771.16;;;1.50;100.00
18504;BME280;9381;54.244;10.074;2022-12-16T05:20:20;100777.19;;;1.52;100.00
18504;BME280;9381;54.244;10.074;2022-12-16T05:25:40;100777.47;;;1.49;100.00
18504;BME280;9381;54.244;10.074;2022-12-16T05:30:59;100783.13;;;1.46;100.00
18504;BME280;9381;54.244;10.074;2022-12-16T05:36:17;100788.13;;;1.49;100.00
18504;BME280;9381;54.244;10.074;2022-12-16T05:41:36;100797.13;;;1.48;100.00
18504;BME280;9381;54.244;10.074;2022-12-16T05:46:55;100797.81;;;1.50;100.00
18504;BME280;9381;54.244;10.074;2022-12-16T05:52:14;100802.50;;;1.56;100.00
18504;BME280;9381;54.244;10.074;2022-12-16T05:57:33;100811.88;;;1.60;100.00
18504;BME280;9381;54.244;10.074;2022-12-16T06:02:52;100818.56;;;1.64;100.00
18504;BME280;9381;54.244;10.074;2022-12-16T06:08:16;100819.63;;;1.71;100.00
18504;BME280;9381;54.244;10.074;2022-12-16T06:13:34;100821.63;;;1.77;100.00
18504;BME280;9381;54.244;10.074;2022-12-16T06:18:53;100834.47;;;1.74;100.00
18504;BME280;9381;54.244;10.074;2022-12-16T06:24:12;100830.56;;;1.68;100.00
18504;BME280;9381;54.244;10.074;2022-12-16T06:29:31;100845.75;;;1.68;100.00
18504;BME280;9381;54.244;10.074;2022-12-16T06:34:50;100857.94;;;1.70;100.00
18504;BME280;9381;54.244;10.074;2022-12-16T06:40:09;100861.94;;;1.74;100.00
18504;BME280;9381;54.244;10.074;2022-12-16T06:45:28;100861.13;;;1.74;100.00
18504;BME280;9381;54.244;10.074;2022-12-16T06:50:47;100872.59;;;1.74;100.00
18504;BME280;9381;54.244;10.074;2022-12-16T06:56:06;100878.63;;;1.76;100.00
18504;BME280;9381;54.244;10.074;2022-12-16T07:01:25;100882.94;;;1.77;100.00
18504;BME280;9381;54.244;10.074;2022-12-16T07:06:44;100894.63;;;1.76;100.00
18504;BME280;9381;54.244;10.074;2022-12-16T07:12:03;100898.47;;;1.74;100.00
18504;BME280;9381;54.244;10.074;2022-12-16T07:17:22;100905.66;;;1.81;100.00
18504;BME280;9381;54.244;10.074;2022-12-16T07:22:42;100908.81;;;1.77;100.00
18504;BME280;9381;54.244;10.074;2022-12-16T07:28:01;100915.66;;;1.79;100.00
18504;BME280;9381;54.244;10.074;2022-12-16T07:33:20;100926.00;;;1.82;100.00
18504;BME280;9381;54.244;10.074;2022-12-16T07:38:39;100938.88;;;1.87;100.00
18504;BME280;9381;54.244;10.074;2022-12-16T07:43:57;100959.66;;;1.83;100.00
18504;BME280;9381;54.244;10.074;2022-12-16T07:49:21;100975.00;;;1.81;100.00
18504;BME280;9381;54.244;10.074;2022-12-16T07:54:40;100979.34;;;1.82;100.00
18504;BME280;9381;54.244;10.074;2022-12-16T07:59:59;100994.34;;;1.83;100.00
18504;BME280;9381;54.244;10.074;2022-12-16T08:05:17;100988.88;;;1.85;100.00
18504;BME280;9381;54.244;10.074;2022-12-16T08:10:36;101006.69;;;1.84;100.00
18504;BME280;9381;54.244;10.074;2022-12-16T08:15:55;100999.66;;;1.83;100.00
18504;BME280;9381;54.244;10.074;2022-12-16T08:21:15;101008.66;;;1.82;100.00
18504;BME280;9381;54.244;10.074;2022-12-16T08:26:34;101024.06;;;1.88;100.00
18504;BME280;9381;54.244;10.074;2022-12-16T08:31:52;101041.41;;;1.92;100.00
18504;BME280;9381;54.244;10.074;2022-12-16T08:37:19;101042.94;;;1.95;100.00
18504;BME280;9381;54.244;10.074;2022-12-16T08:42:38;101049.81;;;1.97;100.00
18504;BME280;9381;54.244;10.074;2022-12-16T08:47:57;101055.81;;;1.99;100.00
18504;BME280;9381;54.244;10.074;2022-12-16T08:53:16;101063.50;;;2.02;100.00
18504;BME280;9381;54.244;10.074;2022-12-16T08:58:35;101069.38;;;2.06;100.00
18504;BME280;9381;54.244;10.074;2022-12-16T09:03:54;101073.25;;;2.11;100.00
18504;BME280;9381;54.244;10.074;2022-12-16T09:09:13;101071.81;;;2.17;100.00
18504;BME280;9381;54.244;10.074;2022-12-16T09:14:32;101086.34;;;2.22;100.00
18504;BME280;9381;54.244;10.074;2022-12-16T09:19:55;101079.06;;;2.24;100.00
18504;BME280;9381;54.244;10.074;2022-12-16T09:25:14;101084.38;;;2.24;100.00
18504;BME280;9381;54.244;10.074;2022-12-16T09:30:33;101097.03;;;2.22;100.00
18504;BME280;9381;54.244;10.074;2022-12-16T09:35:52;101101.09;;;2.26;100.00
18504;BME280;9381;54.244;10.074;2022-12-16T09:41:22;101101.22;;;2.25;100.00
18504;BME280;9381;54.244;10.074;2022-12-16T09:47:22;101110.84;;;2.35;100.00
18504;BME280;9381;54.244;10.074;2022-12-16T09:52:46;101110.84;;;2.35;100.00
18504;BME280;9381;54.244;10.074;2022-12-16T09:58:07;101117.16;;;2.34;100.00
18504;BME280;9381;54.244;10.074;2022-12-16T10:03:33;101123.25;;;2.44;100.00
18504;BME280;9381;54.244;10.074;2022-12-16T10:09:26;101121.78;;;2.50;100.00
18504;BME280;9381;54.244;10.074;2022-12-16T10:14:59;101114.97;;;2.55;100.00
18504;BME280;9381;54.244;10.074;2022-12-16T10:20:29;101131.00;;;2.55;100.00
18504;BME280;9381;54.244;10.074;2022-12-16T10:25:56;101137.53;;;2.61;100.00
18504;BME280;9381;54.244;10.074;2022-12-16T10:31:16;101128.75;;;2.68;100.00
18504;BME280;9381;54.244;10.074;2022-12-16T10:36:40;101128.81;;;2.76;100.00
18504;BME280;9381;54.244;10.074;2022-12-16T10:42:01;101128.19;;;2.82;100.00
18504;BME280;9381;54.244;10.074;2022-12-16T10:47:20;101135.41;;;2.89;100.00
18504;BME280;9381;54.244;10.074;2022-12-16T10:52:53;101145.78;;;2.92;100.00
18504;BME280;9381;54.244;10.074;2022-12-16T11:03:55;101139.66;;;3.00;100.00
18504;BME280;9381;54.244;10.074;2022-12-16T11:09:26;101142.31;;;3.00;100.00
18504;BME280;9381;54.244;10.074;2022-12-16T11:14:59;101140.31;;;3.02;100.00
18504;BME280;9381;54.244;10.074;2022-12-16T11:20:23;101147.00;;;2.98;100.00
18504;BME280;9381;54.244;10.074;2022-12-16T11:25:43;101156.63;;;2.91;100.00
18504;BME280;9381;54.244;10.074;2022-12-16T11:31:05;101159.09;;;2.84;100.00
18504;BME280;9381;54.244;10.074;2022-12-16T11:36:26;101154.78;;;2.66;100.00
18504;BME280;9381;54.244;10.074;2022-12-16T11:41:48;101152.03;;;2.58;100.00
18504;BME280;9381;54.244;10.074;2022-12-16T11:52:59;101158.13;;;2.68;100.00
18504;BME280;9381;54.244;10.074;2022-12-16T12:03:59;101163.91;;;2.81;100.00
18504;BME280;9381;54.244;10.074;2022-12-16T12:09:24;101165.78;;;2.88;100.00
18504;BME280;9381;54.244;10.074;2022-12-16T12:14:52;101162.19;;;2.97;100.00
18504;BME280;9381;54.244;10.074;2022-12-16T12:26:10;101173.66;;;2.90;100.00
18504;BME280;9381;54.244;10.074;2022-12-16T12:31:48;101173.44;;;2.83;100.00
18504;BME280;9381;54.244;10.074;2022-12-16T12:42:44;101178.41;;;2.78;100.00
18504;BME280;9381;54.244;10.074;2022-12-16T12:48:16;101184.28;;;2.82;100.00
18504;BME280;9381;54.244;10.074;2022-12-16T12:53:45;101178.94;;;2.82;100.00
18504;BME280;9381;54.244;10.074;2022-12-16T12:59:30;101190.97;;;2.86;100.00
18504;BME280;9381;54.244;10.074;2022-12-16T13:04:53;101186.75;;;3.01;100.00
18504;BME280;9381;54.244;10.074;2022-12-16T13:15:38;101203.41;;;2.95;100.00
18504;BME280;9381;54.244;10.074;2022-12-16T13:20:57;101214.41;;;2.92;100.00
18504;BME280;9381;54.244;10.074;2022-12-16T13:26:21;101212.00;;;2.81;100.00
18504;BME280;9381;54.244;10.074;2022-12-16T13:31:58;101213.97;;;2.79;100.00
18504;BME280;9381;54.244;10.074;2022-12-16T13:37:23;101223.97;;;2.77;100.00
18504;BME280;9381;54.244;10.074;2022-12-16T13:48:04;101227.34;;;2.62;100.00
18504;BME280;9381;54.244;10.074;2022-12-16T13:53:46;101240.38;;;2.47;100.00
18504;BME280;9381;54.244;10.074;2022-12-16T13:59:19;101240.56;;;2.63;100.00
18504;BME280;9381;54.244;10.074;2022-12-16T14:04:45;101241.47;;;2.54;100.00
18504;BME280;9381;54.244;10.074;2022-12-16T14:10:22;101257.31;;;2.38;100.00
18504;BME280;9381;54.244;10.074;2022-12-16T14:21:41;101256.63;;;2.36;100.00
18504;BME280;9381;54.244;10.074;2022-12-16T14:27:18;101263.97;;;2.34;100.00
18504;BME280;9381;54.244;10.074;2022-12-16T14:32:37;101268.81;;;2.21;100.00
18504;BME280;9381;54.244;10.074;2022-12-16T14:37:56;101274.31;;;2.20;100.00
18504;BME280;9381;54.244;10.074;2022-12-16T14:43:24;101277.16;;;2.09;100.00
18504;BME280;9381;54.244;10.074;2022-12-16T14:48:48;101282.78;;;2.15;100.00
18504;BME280;9381;54.244;10.074;2022-12-16T14:54:28;101287.69;;;2.10;100.00
18504;BME280;9381;54.244;10.074;2022-12-16T15:00:19;101281.69;;;2.08;100.00
18504;BME280;9381;54.244;10.074;2022-12-16T15:05:39;101290.28;;;2.02;100.00
18504;BME280;9381;54.244;10.074;2022-12-16T15:10:59;101302.50;;;1.95;100.00
18504;BME280;9381;54.244;10.074;2022-12-16T15:16:25;101304.75;;;2.00;100.00
18504;BME280;9381;54.244;10.074;2022-12-16T15:21:47;101296.59;;;2.01;100.00
18504;BME280;9381;54.244;10.074;2022-12-16T15:32:40;101311.94;;;1.90;100.00
18504;BME280;9381;54.244;10.074;2022-12-16T15:37:59;101319.69;;;1.83;100.00
18504;BME280;9381;54.244;10.074;2022-12-16T15:43:30;101330.25;;;1.75;100.00
18504;BME280;9381;54.244;10.074;2022-12-16T15:48:50;101337.56;;;1.73;100.00
18504;BME280;9381;54.244;10.074;2022-12-16T15:54:52;101338.75;;;1.61;100.00
18504;BME280;9381;54.244;10.074;2022-12-16T16:00:29;101343.53;;;1.48;100.00
18504;BME280;9381;54.244;10.074;2022-12-16T16:05:48;101349.31;;;1.34;100.00
18504;BME280;9381;54.244;10.074;2022-12-16T16:11:07;101361.94;;;1.23;100.00
18504;BME280;9381;54.244;10.074;2022-12-16T16:16:26;101357.75;;;1.11;100.00
18504;BME280;9381;54.244;10.074;2022-12-16T16:21:45;101367.00;;;0.97;100.00
18504;BME280;9381;54.244;10.074;2022-12-16T16:27:08;101373.44;;;0.85;100.00
18504;BME280;9381;54.244;10.074;2022-12-16T16:32:29;101385.50;;;0.70;100.00
18504;BME280;9381;54.244;10.074;2022-12-16T16:37:48;101386.84;;;0.55;100.00
18504;BME280;9381;54.244;10.074;2022-12-16T16:43:07;101405.31;;;0.47;100.00
18504;BME280;9381;54.244;10.074;2022-12-16T16:48:26;101402.81;;;0.46;100.00
18504;BME280;9381;54.244;10.074;2022-12-16T16:53:46;101407.09;;;0.37;100.00
18504;BME280;9381;54.244;10.074;2022-12-16T16:59:04;101411.16;;;0.32;100.00
18504;BME280;9381;54.244;10.074;2022-12-16T17:04:23;101418.56;;;0.28;100.00
18504;BME280;9381;54.244;10.074;2022-12-16T17:09:43;101426.25;;;0.31;100.00
18504;BME280;9381;54.244;10.074;2022-12-16T17:15:12;101425.72;;;0.37;100.00
18504;BME280;9381;54.244;10.074;2022-12-16T17:20:31;101421.28;;;0.38;100.00
18504;BME280;9381;54.244;10.074;2022-12-16T17:25:50;101438.47;;;0.34;100.00
18504;BME280;9381;54.244;10.074;2022-12-16T17:31:09;101432.75;;;0.38;100.00
18504;BME280;9381;54.244;10.074;2022-12-16T17:36:28;101441.00;;;0.35;100.00
18504;BME280;9381;54.244;10.074;2022-12-16T17:41:47;101446.41;;;0.24;100.00
18504;BME280;9381;54.244;10.074;2022-12-16T17:47:06;101445.97;;;0.19;100.00
18504;BME280;9381;54.244;10.074;2022-12-16T17:52:25;101443.31;;;0.19;100.00
18504;BME280;9381;54.244;10.074;2022-12-16T17:57:44;101452.25;;;0.18;100.00
18504;BME280;9381;54.244;10.074;2022-12-16T18:03:03;101458.09;;;0.12;100.00
18504;BME280;9381;54.244;10.074;2022-12-16T18:08:22;101456.19;;;0.14;100.00
18504;BME280;9381;54.244;10.074;2022-12-16T18:13:42;101460.16;;;-0.01;100.00
18504;BME280;9381;54.244;10.074;2022-12-16T18:19:00;101475.09;;;-0.09;100.00
18504;BME280;9381;54.244;10.074;2022-12-16T18:24:19;101485.00;;;-0.31;100.00
18504;BME280;9381;54.244;10.074;2022-12-16T18:29:38;101479.78;;;-0.53;100.00
18504;BME280;9381;54.244;10.074;2022-12-16T18:34:57;101487.47;;;-0.71;100.00
18504;BME280;9381;54.244;10.074;2022-12-16T18:40:16;101491.03;;;-0.92;100.00
18504;BME280;9381;54.244;10.074;2022-12-16T18:45:35;101506.28;;;-1.16;100.00
18504;BME280;9381;54.244;10.074;2022-12-16T18:50:55;101495.25;;;-1.54;100.00
18504;BME280;9381;54.244;10.074;2022-12-16T18:56:14;101494.75;;;-1.70;100.00
18504;BME280;9381;54.244;10.074;2022-12-16T19:01:33;101498.63;;;-1.85;100.00
18504;BME280;9381;54.244;10.074;2022-12-16T19:06:52;101503.16;;;-2.09;100.00
18504;BME280;9381;54.244;10.074;2022-12-16T19:12:12;101503.47;;;-2.25;100.00
18504;BME280;9381;54.244;10.074;2022-12-16T19:17:30;101513.69;;;-2.31;100.00
18504;BME280;9381;54.244;10.074;2022-12-16T19:22:49;101515.13;;;-2.38;100.00
18504;BME280;9381;54.244;10.074;2022-12-16T19:28:15;101533.91;;;-2.41;100.00
18504;BME280;9381;54.244;10.074;2022-12-16T19:33:34;101542.41;;;-2.49;100.00
18504;BME280;9381;54.244;10.074;2022-12-16T19:38:53;101538.16;;;-2.51;100.00
18504;BME280;9381;54.244;10.074;2022-12-16T19:44:12;101543.41;;;-2.62;100.00
18504;BME280;9381;54.244;10.074;2022-12-16T19:49:31;101548.66;;;-2.73;100.00
18504;BME280;9381;54.244;10.074;2022-12-16T19:54:50;101546.94;;;-2.85;100.00
18504;BME280;9381;54.244;10.074;2022-12-16T20:00:09;101552.16;;;-2.96;100.00
18504;BME280;9381;54.244;10.074;2022-12-16T20:05:28;101550.44;;;-2.97;100.00
18504;BME280;9381;54.244;10.074;2022-12-16T20:10:47;101550.19;;;-3.05;100.00
18504;BME280;9381;54.244;10.074;2022-12-16T20:16:08;101557.19;;;-3.16;100.00
18504;BME280;9381;54.244;10.074;2022-12-16T20:21:27;101561.53;;;-3.28;100.00
18504;BME280;9381;54.244;10.074;2022-12-16T20:26:46;101559.31;;;-3.34;99.86
18504;BME280;9381;54.244;10.074;2022-12-16T20:32:05;101555.44;;;-3.41;99.59
18504;BME280;9381;54.244;10.074;2022-12-16T20:37:24;101568.53;;;-3.52;99.35
18504;BME280;9381;54.244;10.074;2022-12-16T20:42:43;101578.28;;;-3.65;98.51
18504;BME280;9381;54.244;10.074;2022-12-16T20:48:02;101584.94;;;-3.72;97.27
18504;BME280;9381;54.244;10.074;2022-12-16T20:53:21;101595.84;;;-3.76;96.74
18504;BME280;9381;54.244;10.074;2022-12-16T20:58:40;101595.44;;;-3.70;96.33
18504;BME280;9381;54.244;10.074;2022-12-16T21:03:59;101601.44;;;-3.81;96.41
18504;BME280;9381;54.244;10.074;2022-12-16T21:09:18;101604.69;;;-3.90;96.20
18504;BME280;9381;54.244;10.074;2022-12-16T21:14:37;101603.84;;;-4.03;95.72
18504;BME280;9381;54.244;10.074;2022-12-16T21:19:56;101611.00;;;-4.17;95.92
18504;BME280;9381;54.244;10.074;2022-12-16T21:25:15;101610.34;;;-4.21;96.06
18504;BME280;9381;54.244;10.074;2022-12-16T21:30:34;101611.44;;;-4.11;96.14
18504;BME280;9381;54.244;10.074;2022-12-16T21:35:53;101618.75;;;-4.02;96.07
18504;BME280;9381;54.244;10.074;2022-12-16T21:41:12;101629.88;;;-3.97;97.06
18504;BME280;9381;54.244;10.074;2022-12-16T21:46:31;101631.22;;;-4.04;97.05
18504;BME280;9381;54.244;10.074;2022-12-16T21:51:50;101637.84;;;-4.11;96.85
18504;BME280;9381;54.244;10.074;2022-12-16T21:57:09;101634.22;;;-4.22;95.54
18504;BME280;9381;54.244;10.074;2022-12-16T22:02:28;101643.66;;;-4.45;94.52
18504;BME280;9381;54.244;10.074;2022-12-16T22:07:48;101651.28;;;-4.81;93.24
18504;BME280;9381;54.244;10.074;2022-12-16T22:13:06;101646.47;;;-4.74;93.45
18504;BME280;9381;54.244;10.074;2022-12-16T22:18:25;101637.84;;;-5.04;92.26
18504;BME280;9381;54.244;10.074;2022-12-16T22:23:44;101637.22;;;-5.22;93.42
18504;BME280;9381;54.244;10.074;2022-12-16T22:29:03;101643.03;;;-5.17;93.43
18504;BME280;9381;54.244;10.074;2022-12-16T22:34:22;101636.63;;;-5.27;93.44
18504;BME280;9381;54.244;10.074;2022-12-16T22:39:41;101647.00;;;-5.24;92.87
18504;BME280;9381;54.244;10.074;2022-12-16T22:45:04;101647.38;;;-5.30;92.89
18504;BME280;9381;54.244;10.074;2022-12-16T22:50:23;101652.28;;;-5.24;93.06
18504;BME280;9381;54.244;10.074;2022-12-16T22:55:42;101660.00;;;-5.21;93.27
18504;BME280;9381;54.244;10.074;2022-12-16T23:01:05;101650.03;;;-5.16;93.66
18504;BME280;9381;54.244;10.074;2022-12-16T23:06:24;101648.97;;;-5.13;93.62
18504;BME280;9381;54.244;10.074;2022-12-16T23:11:43;101650.84;;;-5.15;93.90
18504;BME280;9381;54.244;10.074;2022-12-16T23:17:02;101651.88;;;-5.18;93.44
18504;BME280;9381;54.244;10.074;2022-12-16T23:22:22;101655.09;;;-5.13;94.01
18504;BME280;9381;54.244;10.074;2022-12-16T23:27:40;101660.75;;;-5.19;93.76
18504;BME280;9381;54.244;10.074;2022-12-16T23:33:00;101658.22;;;-5.20;93.67
18504;BME280;9381;54.244;10.074;2022-12-16T23:38:19;101654.81;;;-5.22;92.90
18504;BME280;9381;54.244;10.074;2022-12-16T23:43:42;101666.22;;;-5.22;93.65
18504;BME280;9381;54.244;10.074;2022-12-16T23:49:02;101666.56;;;-5.28;93.26
18504;BME280;9381;54.244;10.074;2022-12-16T23:54:20;101669.97;;;-5.26;93.72
18504;BME280;9381;54.244;10.074;2022-12-16T23:59:39;101680.50;;;-5.26;94.19
